createdAt,value
2023-02-27T00:01:40.769Z,1.00
2023-02-27T00:04:07.730Z,1.00
2023-02-27T00:06:34.601Z,1.00
2023-02-27T00:09:01.452Z,1.00
2023-02-27T00:11:28.740Z,0.90
2023-02-27T00:13:55.948Z,1.00
2023-02-27T00:16:22.825Z,1.00
2023-02-27T00:18:49.690Z,1.00
2023-02-27T00:21:16.757Z,1.00
2023-02-27T00:23:43.611Z,1.00
2023-02-27T00:26:10.417Z,1.00
2023-02-27T00:28:37.214Z,1.00
2023-02-27T00:31:04.864Z,1.10
2023-02-27T00:33:31.951Z,1.10
2023-02-27T00:36:01.659Z,1.20
2023-02-27T00:38:29.136Z,1.20
2023-02-27T00:40:56.007Z,1.30
2023-02-27T00:43:23.005Z,1.30
2023-02-27T00:45:49.868Z,1.30
2023-02-27T00:48:17.039Z,1.30
2023-02-27T00:50:44.315Z,1.20
2023-02-27T00:53:11.372Z,1.20
2023-02-27T00:55:38.224Z,1.20
2023-02-27T00:58:05.030Z,1.20
2023-02-27T01:00:31.888Z,1.10
2023-02-27T01:02:58.791Z,1.10
2023-02-27T01:05:26.234Z,1.10
2023-02-27T01:07:54.037Z,1.10
2023-02-27T01:10:21.276Z,1.00
2023-02-27T01:12:48.146Z,1.00
2023-02-27T01:15:15.135Z,1.00
2023-02-27T01:17:42.297Z,0.90
2023-02-27T01:20:11.976Z,0.90
2023-02-27T01:22:38.907Z,0.90
2023-02-27T01:25:06.913Z,0.90
2023-02-27T01:27:34.094Z,0.90
2023-02-27T01:30:01.038Z,0.90
2023-02-27T01:32:28.117Z,0.90
2023-02-27T01:34:55.078Z,0.90
2023-02-27T01:37:21.938Z,0.90
2023-02-27T01:39:48.865Z,1.00
2023-02-27T01:42:28.375Z,1.00
2023-02-27T01:45:32.185Z,1.00
2023-02-27T01:48:23.155Z,1.00
2023-02-27T01:50:58.825Z,0.90
2023-02-27T01:53:28.800Z,0.80
2023-02-27T01:56:11.308Z,0.70
2023-02-27T01:58:39.266Z,0.70
2023-02-27T02:01:06.806Z,0.70
2023-02-27T02:03:48.152Z,0.60
2023-02-27T02:06:14.966Z,0.60
2023-02-27T02:08:47.102Z,0.50
2023-02-27T02:11:18.427Z,0.40
2023-02-27T02:13:45.527Z,0.30
2023-02-27T02:16:49.181Z,0.30
2023-02-27T02:19:49.115Z,0.40
2023-02-27T02:22:27.676Z,0.40
2023-02-27T02:25:25.236Z,0.40
2023-02-27T02:28:49.634Z,0.40
2023-02-27T02:32:11.886Z,0.50
2023-02-27T02:35:09.512Z,0.50
2023-02-27T02:38:03.895Z,0.60
2023-02-27T02:40:55.719Z,0.70
2023-02-27T02:43:40.251Z,0.70
2023-02-27T02:46:40.576Z,0.70
2023-02-27T02:49:39.830Z,0.70
2023-02-27T02:52:47.768Z,0.70
2023-02-27T02:55:37.737Z,0.70
2023-02-27T02:58:24.946Z,0.70
2023-02-27T03:01:25.258Z,0.70
2023-02-27T03:04:03.431Z,0.70
2023-02-27T03:06:36.942Z,0.70
2023-02-27T03:09:17.824Z,0.80
2023-02-27T03:11:49.098Z,0.70
2023-02-27T03:14:31.628Z,0.70
2023-02-27T03:17:06.809Z,0.70
2023-02-27T03:19:57.591Z,0.60
2023-02-27T03:22:50.766Z,0.60
2023-02-27T03:25:18.389Z,0.60
2023-02-27T03:27:55.839Z,0.60
2023-02-27T03:30:44.859Z,0.50
2023-02-27T03:33:23.864Z,0.40
2023-02-27T03:36:05.004Z,0.40
2023-02-27T03:38:51.240Z,0.40
2023-02-27T03:42:14.796Z,0.50
2023-02-27T03:45:14.031Z,0.40
2023-02-27T03:47:41.102Z,0.30
2023-02-27T03:50:09.555Z,0.40
2023-02-27T03:52:36.622Z,0.40
2023-02-27T03:55:26.459Z,0.30
2023-02-27T03:57:54.072Z,0.30
2023-02-27T04:00:24.741Z,0.30
2023-02-27T04:02:56.044Z,0.30
2023-02-27T04:05:23.957Z,0.30
2023-02-27T04:08:18.055Z,0.30
2023-02-27T04:11:13.650Z,0.40
2023-02-27T04:13:49.249Z,0.40
2023-02-27T04:16:49.942Z,0.30
2023-02-27T04:19:35.349Z,0.40
2023-02-27T04:22:31.815Z,0.40
2023-02-27T04:25:58.100Z,0.50
2023-02-27T04:28:56.554Z,0.40
2023-02-27T04:31:41.413Z,0.50
2023-02-27T04:34:20.471Z,0.50
2023-02-27T04:36:56.220Z,0.50
2023-02-27T04:39:36.958Z,0.60
2023-02-27T04:42:18.650Z,0.60
2023-02-27T04:44:49.103Z,0.60
2023-02-27T04:47:19.095Z,0.70
2023-02-27T04:49:58.723Z,0.70
2023-02-27T04:52:37.975Z,0.70
2023-02-27T04:55:14.243Z,0.70
2023-02-27T04:58:07.781Z,0.70
2023-02-27T05:00:39.858Z,0.80
2023-02-27T05:03:19.560Z,0.80
2023-02-27T05:05:50.599Z,0.80
2023-02-27T05:08:30.433Z,0.90
2023-02-27T05:11:06.025Z,0.90
2023-02-27T05:13:43.465Z,0.90
2023-02-27T05:16:20.185Z,1.00
2023-02-27T05:18:48.234Z,1.00
2023-02-27T05:21:58.701Z,1.00
2023-02-27T05:24:53.976Z,1.00
2023-02-27T05:27:35.118Z,0.90
2023-02-27T05:30:54.078Z,0.90
2023-02-27T05:33:39.042Z,0.90
2023-02-27T05:36:14.011Z,0.90
2023-02-27T05:38:48.770Z,0.90
2023-02-27T05:41:48.210Z,0.80
2023-02-27T05:44:25.393Z,0.80
2023-02-27T05:47:04.173Z,0.80
2023-02-27T05:50:15.005Z,0.80
2023-02-27T05:52:44.788Z,0.90
2023-02-27T05:55:27.203Z,0.90
2023-02-27T05:58:06.463Z,1.00
2023-02-27T06:00:59.240Z,1.00
2023-02-27T06:03:29.305Z,1.00
2023-02-27T06:06:00.493Z,1.00
2023-02-27T06:08:27.725Z,1.00
2023-02-27T06:10:55.269Z,1.00
2023-02-27T06:13:24.127Z,1.00
2023-02-27T06:15:51.008Z,1.10
2023-02-27T06:18:19.089Z,1.10
2023-02-27T06:20:47.347Z,1.20
2023-02-27T06:23:14.424Z,1.20
2023-02-27T06:25:44.353Z,1.20
2023-02-27T06:28:11.934Z,1.30
2023-02-27T06:30:38.921Z,1.30
2023-02-27T06:33:05.998Z,1.30
2023-02-27T06:35:33.122Z,1.40
2023-02-27T06:38:03.029Z,1.40
2023-02-27T06:40:29.859Z,1.40
2023-02-27T06:42:56.875Z,1.40
2023-02-27T06:45:24.364Z,1.50
2023-02-27T06:47:51.202Z,1.50
2023-02-27T06:50:18.139Z,1.50
2023-02-27T06:52:44.994Z,1.60
2023-02-27T06:55:12.085Z,1.60
2023-02-27T06:57:39.038Z,1.70
2023-02-27T07:00:07.327Z,1.80
2023-02-27T07:02:34.210Z,1.80
2023-02-27T07:05:01.150Z,1.80
2023-02-27T07:07:37.926Z,1.80
2023-02-27T07:10:11.704Z,1.90
2023-02-27T07:12:40.220Z,1.90
2023-02-27T07:15:09.054Z,1.90
2023-02-27T07:17:36.616Z,1.90
2023-02-27T07:20:05.633Z,1.90
2023-02-27T07:22:32.601Z,1.90
2023-02-27T07:24:59.597Z,2.00
2023-02-27T07:27:26.701Z,2.00
2023-02-27T07:29:54.004Z,2.10
2023-02-27T07:32:21.152Z,2.20
2023-02-27T07:34:48.141Z,2.30
2023-02-27T07:37:15.080Z,2.20
2023-02-27T07:39:41.993Z,2.30
2023-02-27T07:42:08.886Z,2.30
2023-02-27T07:44:35.793Z,2.40
2023-02-27T07:47:02.762Z,2.40
2023-02-27T07:49:29.713Z,2.40
2023-02-27T07:51:56.650Z,2.50
2023-02-27T07:54:23.450Z,2.60
2023-02-27T07:56:50.392Z,2.60
2023-02-27T07:59:17.260Z,2.60
2023-02-27T08:01:44.109Z,2.60
2023-02-27T08:04:11.115Z,2.60
2023-02-27T08:06:37.985Z,2.70
2023-02-27T08:09:05.736Z,2.80
2023-02-27T08:11:32.641Z,3.00
2023-02-27T08:14:01.287Z,3.00
2023-02-27T08:16:30.802Z,3.10
2023-02-27T08:18:58.469Z,3.30
2023-02-27T08:21:26.451Z,3.30
2023-02-27T08:23:54.415Z,3.50
2023-02-27T08:26:21.785Z,3.60
2023-02-27T08:28:48.849Z,3.80
2023-02-27T08:31:16.088Z,4.00
2023-02-27T08:33:42.949Z,3.90
2023-02-27T08:36:10.184Z,4.10
2023-02-27T08:38:37.081Z,4.30
2023-02-27T08:41:04.508Z,4.40
2023-02-27T08:43:32.595Z,4.40
2023-02-27T08:45:59.493Z,4.60
2023-02-27T08:48:27.567Z,4.60
2023-02-27T08:50:56.722Z,4.70
2023-02-27T08:53:25.910Z,4.70
2023-02-27T08:55:53.436Z,4.70
2023-02-27T08:58:20.495Z,4.80
2023-02-27T09:00:47.814Z,4.70
2023-02-27T09:03:14.994Z,4.70
2023-02-27T09:05:42.592Z,4.80
2023-02-27T09:08:09.700Z,4.70
2023-02-27T09:10:36.674Z,4.80
2023-02-27T09:13:03.883Z,4.90
2023-02-27T09:15:32.538Z,5.00
2023-02-27T09:18:03.031Z,4.90
2023-02-27T09:20:35.811Z,5.00
2023-02-27T09:23:04.299Z,4.90
2023-02-27T09:25:31.705Z,4.80
2023-02-27T09:27:58.647Z,4.90
2023-02-27T09:30:25.623Z,4.90
2023-02-27T09:32:52.693Z,4.90
2023-02-27T09:35:22.695Z,5.10
2023-02-27T09:37:49.679Z,5.20
2023-02-27T09:40:25.666Z,5.30
2023-02-27T09:42:58.196Z,5.50
2023-02-27T09:45:29.973Z,5.60
2023-02-27T09:48:12.154Z,5.50
2023-02-27T09:50:53.301Z,5.50
2023-02-27T09:53:47.567Z,5.40
2023-02-27T09:56:14.296Z,5.40
2023-02-27T09:58:43.851Z,5.40
2023-02-27T10:01:27.615Z,5.50
2023-02-27T10:04:05.079Z,5.50
2023-02-27T10:06:51.841Z,5.50
2023-02-27T10:09:59.247Z,5.50
2023-02-27T10:12:35.015Z,5.50
2023-02-27T10:15:14.360Z,5.50
2023-02-27T10:17:51.159Z,5.60
2023-02-27T10:20:28.764Z,5.60
2023-02-27T10:23:01.439Z,5.60
2023-02-27T10:25:32.074Z,5.60
2023-02-27T10:28:21.555Z,5.60
2023-02-27T10:30:53.536Z,5.60
2023-02-27T10:33:44.145Z,5.60
2023-02-27T10:36:20.751Z,5.60
2023-02-27T10:39:00.736Z,5.50
2023-02-27T10:41:29.300Z,5.50
2023-02-27T10:44:00.065Z,5.50
2023-02-27T10:46:38.059Z,5.60
2023-02-27T10:49:21.556Z,5.70
2023-02-27T10:52:10.942Z,5.50
2023-02-27T10:54:39.755Z,5.40
2023-02-27T10:57:30.487Z,5.40
2023-02-27T11:00:09.630Z,5.20
2023-02-27T11:02:42.219Z,5.30
2023-02-27T11:05:34.470Z,5.50
2023-02-27T11:08:26.688Z,5.40
2023-02-27T11:11:09.457Z,5.50
2023-02-27T11:13:43.438Z,5.50
2023-02-27T11:16:23.038Z,5.40
2023-02-27T11:18:52.474Z,5.50
2023-02-27T11:21:28.877Z,5.40
2023-02-27T11:24:03.205Z,5.40
2023-02-27T11:26:38.701Z,5.40
2023-02-27T11:29:11.625Z,5.30
2023-02-27T11:31:39.689Z,5.30
2023-02-27T11:34:20.902Z,5.30
2023-02-27T11:36:50.222Z,5.20
2023-02-27T11:39:47.456Z,5.20
2023-02-27T11:42:34.594Z,5.20
2023-02-27T11:46:12.746Z,5.30
2023-02-27T11:48:48.361Z,5.20
2023-02-27T11:51:27.879Z,5.10
2023-02-27T11:54:07.104Z,5.00
2023-02-27T11:56:47.278Z,5.00
2023-02-27T11:59:47.118Z,5.10
2023-02-27T12:02:39.407Z,5.00
2023-02-27T12:05:26.326Z,4.90
2023-02-27T12:08:11.204Z,5.10
2023-02-27T12:11:13.920Z,5.10
2023-02-27T12:13:49.384Z,5.10
2023-02-27T12:16:32.899Z,5.00
2023-02-27T12:19:13.860Z,5.00
2023-02-27T12:21:49.595Z,5.10
2023-02-27T12:24:38.206Z,5.10
2023-02-27T12:27:29.237Z,5.10
2023-02-27T12:30:21.037Z,5.10
2023-02-27T12:33:09.527Z,5.00
2023-02-27T12:35:36.552Z,5.00
2023-02-27T12:38:04.849Z,5.10
2023-02-27T12:40:41.953Z,5.10
2023-02-27T12:43:48.965Z,5.10
2023-02-27T12:46:29.547Z,5.00
2023-02-27T12:49:34.925Z,5.00
2023-02-27T12:52:32.088Z,4.90
2023-02-27T12:55:42.450Z,5.00
2023-02-27T12:58:59.030Z,5.10
2023-02-27T13:01:59.697Z,5.20
2023-02-27T13:05:16.524Z,5.20
2023-02-27T13:08:01.327Z,5.30
2023-02-27T13:10:50.797Z,5.20
2023-02-27T13:13:38.836Z,5.00
2023-02-27T13:16:29.175Z,5.00
2023-02-27T13:19:13.556Z,4.90
2023-02-27T13:21:51.268Z,4.90
2023-02-27T13:24:30.272Z,4.90
2023-02-27T13:27:18.584Z,4.80
2023-02-27T13:30:01.321Z,4.80
2023-02-27T13:32:50.389Z,4.80
2023-02-27T13:35:37.960Z,4.90
2023-02-27T13:38:43.531Z,4.80
2023-02-27T13:41:25.064Z,4.80
2023-02-27T13:44:15.803Z,4.90
2023-02-27T13:46:42.696Z,4.80
2023-02-27T13:49:28.156Z,4.80
2023-02-27T13:51:58.641Z,4.80
2023-02-27T13:54:40.470Z,4.90
2023-02-27T13:57:19.740Z,4.90
2023-02-27T13:59:59.153Z,4.90
2023-02-27T14:02:40.264Z,4.80
2023-02-27T14:05:16.709Z,4.80
2023-02-27T14:08:05.749Z,4.80
2023-02-27T14:10:35.529Z,4.90
2023-02-27T14:13:03.801Z,4.90
2023-02-27T14:15:34.419Z,4.90
2023-02-27T14:18:16.012Z,4.90
2023-02-27T14:20:51.430Z,4.90
2023-02-27T14:23:26.454Z,4.90
2023-02-27T14:26:08.262Z,4.90
2023-02-27T14:28:48.387Z,4.90
2023-02-27T14:31:30.731Z,4.80
2023-02-27T14:34:05.214Z,4.80
2023-02-27T14:36:51.474Z,4.90
2023-02-27T14:39:35.719Z,4.80
2023-02-27T14:42:32.852Z,4.80
2023-02-27T14:45:00.162Z,4.80
2023-02-27T14:47:35.801Z,4.80
2023-02-27T14:50:23.047Z,4.80
2023-02-27T14:52:50.024Z,4.90
2023-02-27T14:55:27.978Z,4.80
2023-02-27T14:57:55.734Z,4.70
2023-02-27T15:00:41.837Z,4.70
2023-02-27T15:03:21.866Z,4.70
2023-02-27T15:05:52.523Z,4.60
2023-02-27T15:08:32.262Z,4.50
2023-02-27T15:11:00.607Z,4.60
2023-02-27T15:13:39.182Z,4.50
2023-02-27T15:16:28.957Z,4.50
2023-02-27T15:19:05.866Z,4.50
2023-02-27T15:21:42.792Z,4.50
2023-02-27T15:24:40.626Z,4.50
2023-02-27T15:27:24.698Z,4.40
2023-02-27T15:30:00.294Z,4.30
2023-02-27T15:32:41.778Z,4.30
2023-02-27T15:35:27.816Z,4.20
2023-02-27T15:37:59.429Z,4.30
2023-02-27T15:40:30.363Z,4.20
2023-02-27T15:43:00.141Z,4.20
2023-02-27T15:45:40.119Z,4.20
2023-02-27T15:48:07.427Z,4.20
2023-02-27T15:50:38.277Z,4.30
2023-02-27T15:53:08.156Z,4.30
2023-02-27T15:55:40.742Z,4.20
2023-02-27T15:58:22.183Z,4.10
2023-02-27T16:01:00.624Z,4.00
2023-02-27T16:03:37.764Z,4.00
2023-02-27T16:06:16.398Z,4.00
2023-02-27T16:08:55.705Z,3.90
2023-02-27T16:11:26.295Z,3.90
2023-02-27T16:13:54.586Z,3.80
2023-02-27T16:16:36.000Z,3.80
2023-02-27T16:19:28.530Z,3.80
2023-02-27T16:22:18.028Z,3.90
2023-02-27T16:24:45.970Z,3.80
2023-02-27T16:27:31.868Z,3.80
2023-02-27T16:30:02.431Z,3.70
2023-02-27T16:32:34.708Z,3.70
2023-02-27T16:35:23.514Z,3.60
2023-02-27T16:37:51.401Z,3.50
2023-02-27T16:40:25.757Z,3.40
2023-02-27T16:42:53.724Z,3.40
2023-02-27T16:45:27.580Z,3.40
2023-02-27T16:47:58.954Z,3.40
2023-02-27T16:50:40.701Z,3.40
2023-02-27T16:53:08.081Z,3.40
2023-02-27T16:55:39.633Z,3.30
2023-02-27T16:58:06.928Z,3.30
2023-02-27T17:00:39.862Z,3.30
2023-02-27T17:03:07.342Z,3.30
2023-02-27T17:05:35.472Z,3.20
2023-02-27T17:08:02.398Z,3.20
2023-02-27T17:10:29.299Z,3.20
2023-02-27T17:12:56.206Z,3.10
2023-02-27T17:15:23.024Z,3.10
2023-02-27T17:17:50.000Z,3.10
2023-02-27T17:20:16.937Z,3.00
2023-02-27T17:22:45.061Z,3.00
2023-02-27T17:25:13.649Z,3.00
2023-02-27T17:27:43.535Z,2.90
2023-02-27T17:30:11.868Z,2.90
2023-02-27T17:32:39.160Z,2.90
2023-02-27T17:35:06.576Z,2.80
2023-02-27T17:37:33.486Z,2.80
2023-02-27T17:40:04.105Z,2.80
2023-02-27T17:42:32.569Z,2.70
2023-02-27T17:45:01.395Z,2.70
2023-02-27T17:47:28.322Z,2.60
2023-02-27T17:49:55.271Z,2.60
2023-02-27T17:52:22.229Z,2.60
2023-02-27T17:54:49.371Z,2.50
2023-02-27T17:57:17.145Z,2.50
2023-02-27T17:59:43.958Z,2.50
2023-02-27T18:02:15.473Z,2.40
2023-02-27T18:04:42.767Z,2.40
2023-02-27T18:07:09.713Z,2.30
2023-02-27T18:09:36.695Z,2.30
2023-02-27T18:12:03.794Z,2.20
2023-02-27T18:14:30.790Z,2.10
2023-02-27T18:16:58.728Z,2.00
2023-02-27T18:19:26.905Z,1.80
2023-02-27T18:21:53.846Z,1.70
2023-02-27T18:24:21.532Z,1.60
2023-02-27T18:26:48.432Z,1.50
2023-02-27T18:29:16.230Z,1.50
2023-02-27T18:31:46.495Z,1.50
2023-02-27T18:34:13.896Z,1.50
2023-02-27T18:36:40.992Z,1.50
2023-02-27T18:39:08.628Z,1.40
2023-02-27T18:41:36.778Z,1.30
2023-02-27T18:44:06.129Z,1.30
2023-02-27T18:46:34.907Z,1.20
2023-02-27T18:49:01.820Z,1.20
2023-02-27T18:51:28.785Z,1.20
2023-02-27T18:53:57.012Z,1.00
2023-02-27T18:56:26.979Z,0.90
2023-02-27T18:58:58.325Z,0.80
2023-02-27T19:01:32.817Z,0.80
2023-02-27T19:04:05.090Z,0.70
2023-02-27T19:06:42.092Z,0.70
2023-02-27T19:09:12.669Z,0.70
2023-02-27T19:11:45.261Z,0.60
2023-02-27T19:14:15.920Z,0.60
2023-02-27T19:16:44.273Z,0.50
2023-02-27T19:19:12.366Z,0.40
2023-02-27T19:21:40.358Z,0.40
2023-02-27T19:24:10.300Z,0.40
2023-02-27T19:26:37.327Z,0.40
2023-02-27T19:29:06.640Z,0.40
2023-02-27T19:31:34.444Z,0.40
2023-02-27T19:34:01.965Z,0.40
2023-02-27T19:36:35.114Z,0.40
2023-02-27T19:39:03.796Z,0.40
2023-02-27T19:41:33.441Z,0.40
2023-02-27T19:44:02.927Z,0.30
2023-02-27T19:46:34.295Z,0.20
2023-02-27T19:49:08.259Z,0.10
2023-02-27T19:51:35.294Z,0.00
2023-02-27T19:54:02.242Z,0.10
2023-02-27T19:56:30.068Z,0.10
2023-02-27T19:58:57.808Z,0.00
2023-02-27T20:01:29.649Z,-0.10
2023-02-27T20:03:57.098Z,-0.20
2023-02-27T20:06:28.151Z,-0.40
2023-02-27T20:08:57.194Z,-0.50
2023-02-27T20:11:28.383Z,-0.60
2023-02-27T20:13:57.474Z,-0.70
2023-02-27T20:16:27.867Z,-0.70
2023-02-27T20:18:57.965Z,-0.80
2023-02-27T20:21:28.352Z,-0.80
2023-02-27T20:23:55.875Z,-0.80
2023-02-27T20:26:35.275Z,-0.90
2023-02-27T20:29:09.929Z,-0.90
2023-02-27T20:31:39.501Z,-0.90
2023-02-27T20:34:08.027Z,-0.90
2023-02-27T20:36:35.655Z,-0.80
2023-02-27T20:39:03.988Z,-0.80
2023-02-27T20:41:33.075Z,-0.80
2023-02-27T20:44:01.176Z,-0.90
2023-02-27T20:46:30.761Z,-1.00
2023-02-27T20:49:04.046Z,-1.10
2023-02-27T20:51:35.953Z,-1.10
2023-02-27T20:54:07.105Z,-1.10
2023-02-27T20:56:39.841Z,-1.20
2023-02-27T20:59:15.928Z,-1.20
2023-02-27T21:01:51.618Z,-1.20
2023-02-27T21:04:42.055Z,-1.20
2023-02-27T21:07:14.903Z,-1.20
2023-02-27T21:09:42.069Z,-1.30
2023-02-27T21:12:09.588Z,-1.40
2023-02-27T21:14:37.218Z,-1.60
2023-02-27T21:17:05.525Z,-1.80
2023-02-27T21:19:32.361Z,-1.80
2023-02-27T21:21:59.392Z,-1.80
2023-02-27T21:24:26.247Z,-1.80
2023-02-27T21:26:53.170Z,-1.90
2023-02-27T21:29:21.778Z,-1.80
2023-02-27T21:31:52.442Z,-1.90
2023-02-27T21:34:28.292Z,-2.00
2023-02-27T21:36:55.491Z,-2.00
2023-02-27T21:39:28.319Z,-2.00
2023-02-27T21:41:55.402Z,-2.20
2023-02-27T21:44:27.332Z,-2.20
2023-02-27T21:46:55.668Z,-2.30
2023-02-27T21:49:31.107Z,-2.30
2023-02-27T21:51:57.905Z,-2.30
2023-02-27T21:54:24.944Z,-2.30
2023-02-27T21:56:51.979Z,-2.30
2023-02-27T21:59:20.124Z,-2.20
2023-02-27T22:01:48.261Z,-2.20
2023-02-27T22:04:17.626Z,-2.20
2023-02-27T22:06:44.858Z,-2.30
2023-02-27T22:09:11.812Z,-2.30
2023-02-27T22:11:40.805Z,-2.20
2023-02-27T22:14:09.922Z,-2.20
2023-02-27T22:16:37.596Z,-2.20
2023-02-27T22:19:09.621Z,-2.20
2023-02-27T22:21:38.012Z,-2.30
2023-02-27T22:24:06.528Z,-2.30
2023-02-27T22:26:34.022Z,-2.40
2023-02-27T22:29:00.981Z,-2.50
2023-02-27T22:31:33.494Z,-2.50
2023-02-27T22:34:18.153Z,-2.50
2023-02-27T22:36:49.663Z,-2.60
2023-02-27T22:39:16.635Z,-2.70
2023-02-27T22:41:43.593Z,-2.70
2023-02-27T22:44:14.371Z,-2.80
2023-02-27T22:46:47.020Z,-2.80
2023-02-27T22:49:23.129Z,-2.80
2023-02-27T22:51:52.327Z,-2.90
2023-02-27T22:54:22.538Z,-3.00
2023-02-27T22:56:51.809Z,-3.00
2023-02-27T22:59:19.327Z,-3.00
2023-02-27T23:01:48.060Z,-3.00
2023-02-27T23:04:17.122Z,-3.00
2023-02-27T23:06:44.920Z,-3.00
2023-02-27T23:09:19.873Z,-3.00
2023-02-27T23:11:46.990Z,-3.00
2023-02-27T23:14:14.992Z,-2.90
2023-02-27T23:16:45.822Z,-2.90
2023-02-27T23:19:18.960Z,-2.90
2023-02-27T23:21:45.842Z,-3.00
2023-02-27T23:24:16.766Z,-3.00
2023-02-27T23:26:47.899Z,-3.10
2023-02-27T23:29:15.395Z,-3.10
2023-02-27T23:31:42.454Z,-3.20
2023-02-27T23:34:10.248Z,-3.20
2023-02-27T23:36:39.066Z,-3.30
2023-02-27T23:39:07.890Z,-3.30
2023-02-27T23:41:35.048Z,-3.30
2023-02-27T23:44:03.546Z,-3.30
2023-02-27T23:46:30.954Z,-3.40
2023-02-27T23:48:59.580Z,-3.40
2023-02-27T23:51:29.069Z,-3.30
2023-02-27T23:53:57.097Z,-3.30
2023-02-27T23:56:28.535Z,-3.30
2023-02-27T23:59:00.386Z,-3.30
